createdAt,value
2023-01-08T00:00:58.441Z,1.10
2023-01-08T00:01:58.391Z,1.10
2023-01-08T00:02:58.477Z,1.30
2023-01-08T00:03:58.388Z,1.30
2023-01-08T00:04:58.346Z,1.30
2023-01-08T00:05:58.331Z,1.00
2023-01-08T00:06:58.317Z,1.20
2023-01-08T00:07:58.328Z,1.20
2023-01-08T00:08:58.301Z,1.10
2023-01-08T00:09:58.294Z,1.30
2023-01-08T00:10:58.276Z,1.10
2023-01-08T00:11:58.272Z,1.20
2023-01-08T00:12:58.279Z,1.00
2023-01-08T00:13:58.233Z,1.10
2023-01-08T00:14:58.233Z,1.10
2023-01-08T00:15:58.212Z,1.20
2023-01-08T00:16:58.270Z,1.00
2023-01-08T00:17:58.194Z,1.00
2023-01-08T00:18:58.214Z,1.30
2023-01-08T00:19:58.178Z,1.00
2023-01-08T00:20:58.162Z,1.20
2023-01-08T00:21:58.164Z,1.10
2023-01-08T00:22:58.141Z,1.40
2023-01-08T00:23:58.173Z,1.20
2023-01-08T00:24:58.120Z,1.20
2023-01-08T00:25:58.114Z,1.40
2023-01-08T00:26:58.094Z,1.10
2023-01-08T00:27:58.092Z,1.30
2023-01-08T00:28:58.079Z,1.20
2023-01-08T00:29:58.102Z,1.10
2023-01-08T00:30:58.142Z,1.10
2023-01-08T00:31:58.053Z,1.10
2023-01-08T00:32:58.039Z,1.20
2023-01-08T00:33:58.027Z,1.00
2023-01-08T00:34:58.038Z,1.10
2023-01-08T00:35:58.119Z,1.10
2023-01-08T00:36:57.985Z,1.10
2023-01-08T00:37:57.986Z,1.00
2023-01-08T00:38:57.983Z,1.10
2023-01-08T00:39:57.964Z,1.00
2023-01-08T00:40:57.942Z,1.10
2023-01-08T00:41:57.943Z,1.20
2023-01-08T00:42:57.934Z,1.00
2023-01-08T00:43:57.940Z,1.00
2023-01-08T00:44:57.907Z,1.10
2023-01-08T00:45:57.979Z,1.10
2023-01-08T00:46:57.874Z,1.10
2023-01-08T00:47:57.891Z,1.10
2023-01-08T00:48:57.863Z,1.10
2023-01-08T00:49:57.883Z,1.10
2023-01-08T00:50:57.844Z,1.10
2023-01-08T00:51:57.842Z,1.10
2023-01-08T00:52:57.826Z,1.40
2023-01-08T00:53:57.812Z,1.10
2023-01-08T00:54:57.814Z,1.30
2023-01-08T00:55:57.777Z,1.20
2023-01-08T00:56:57.766Z,1.00
2023-01-08T00:57:57.761Z,1.10
2023-01-08T00:58:57.751Z,1.10
2023-01-08T00:59:57.758Z,1.10
2023-01-08T01:00:57.802Z,1.00
2023-01-08T01:01:57.829Z,1.20
2023-01-08T01:02:57.713Z,1.00
2023-01-08T01:03:57.773Z,1.00
2023-01-08T01:04:57.722Z,1.00
2023-01-08T01:05:57.681Z,1.00
2023-01-08T01:06:57.688Z,1.00
2023-01-08T01:07:57.651Z,1.30
2023-01-08T01:08:57.638Z,1.10
2023-01-08T01:09:57.637Z,1.10
2023-01-08T01:10:57.625Z,1.00
2023-01-08T01:11:57.671Z,1.20
2023-01-08T01:12:57.602Z,1.00
2023-01-08T01:13:57.601Z,1.20
2023-01-08T01:14:57.596Z,0.90
2023-01-08T01:15:57.582Z,1.10
2023-01-08T01:16:57.625Z,1.00
2023-01-08T01:17:57.589Z,1.20
2023-01-08T01:18:57.543Z,0.90
2023-01-08T01:19:57.521Z,0.80
2023-01-08T01:20:57.515Z,0.90
2023-01-08T01:21:57.508Z,0.80
2023-01-08T01:22:57.499Z,1.00
2023-01-08T01:23:57.498Z,1.00
2023-01-08T01:24:57.467Z,1.00
2023-01-08T01:25:57.474Z,1.20
2023-01-08T01:26:57.438Z,0.90
2023-01-08T01:27:57.457Z,1.00
2023-01-08T01:28:57.469Z,0.80
2023-01-08T01:29:57.408Z,0.80
2023-01-08T01:30:57.438Z,0.80
2023-01-08T01:31:57.394Z,1.10
2023-01-08T01:32:57.385Z,0.80
2023-01-08T01:33:57.421Z,1.10
2023-01-08T01:34:57.369Z,0.80
2023-01-08T01:35:57.350Z,0.80
2023-01-08T01:36:57.361Z,0.90
2023-01-08T01:37:57.354Z,0.80
2023-01-08T01:38:57.358Z,0.80
2023-01-08T01:39:57.322Z,0.80
2023-01-08T01:40:57.295Z,0.90
2023-01-08T01:41:57.306Z,0.80
2023-01-08T01:42:57.278Z,0.80
2023-01-08T01:43:57.289Z,0.80
2023-01-08T01:44:57.259Z,0.70
2023-01-08T01:45:57.298Z,0.80
2023-01-08T01:46:57.233Z,0.70
2023-01-08T01:47:57.213Z,0.80
2023-01-08T01:48:57.208Z,0.60
2023-01-08T01:49:57.242Z,0.80
2023-01-08T01:50:57.185Z,0.80
2023-01-08T01:51:57.182Z,1.00
2023-01-08T01:52:57.160Z,0.90
2023-01-08T01:53:57.151Z,0.90
2023-01-08T01:54:57.141Z,0.70
2023-01-08T01:55:57.152Z,0.80
2023-01-08T01:56:57.121Z,0.60
2023-01-08T01:57:57.101Z,0.70
2023-01-08T01:58:57.095Z,0.80
2023-01-08T01:59:57.090Z,0.70
2023-01-08T02:00:57.126Z,0.90
2023-01-08T02:01:57.248Z,0.70
2023-01-08T02:02:57.051Z,0.80
2023-01-08T02:03:57.099Z,0.70
2023-01-08T02:04:57.033Z,0.60
2023-01-08T02:05:57.032Z,1.00
2023-01-08T02:06:57.041Z,0.60
2023-01-08T02:07:57.006Z,0.80
2023-01-08T02:08:57.000Z,0.60
2023-01-08T02:09:56.974Z,0.60
2023-01-08T02:10:56.964Z,0.80
2023-01-08T02:11:56.974Z,0.70
2023-01-08T02:12:56.945Z,0.80
2023-01-08T02:13:56.933Z,0.40
2023-01-08T02:14:56.934Z,1.00
2023-01-08T02:15:56.920Z,0.70
2023-01-08T02:16:56.992Z,0.80
2023-01-08T02:17:56.893Z,0.60
2023-01-08T02:18:56.887Z,0.60
2023-01-08T02:19:56.871Z,0.70
2023-01-08T02:20:56.865Z,0.90
2023-01-08T02:21:56.849Z,0.70
2023-01-08T02:22:56.874Z,0.70
2023-01-08T02:23:56.828Z,0.70
2023-01-08T02:24:56.814Z,0.90
2023-01-08T02:25:56.812Z,0.80
2023-01-08T02:26:56.802Z,0.70
2023-01-08T02:27:56.804Z,0.90
2023-01-08T02:28:56.771Z,0.70
2023-01-08T02:29:56.753Z,0.50
2023-01-08T02:30:56.808Z,0.70
2023-01-08T02:31:56.747Z,0.70
2023-01-08T02:32:56.744Z,0.80
2023-01-08T02:33:56.719Z,0.70
2023-01-08T02:34:56.704Z,0.90
2023-01-08T02:35:56.695Z,1.10
2023-01-08T02:36:56.689Z,0.80
2023-01-08T02:37:56.693Z,0.80
2023-01-08T02:38:56.664Z,0.80
2023-01-08T02:39:56.646Z,0.80
2023-01-08T02:40:56.643Z,0.60
2023-01-08T02:41:56.647Z,0.90
2023-01-08T02:42:56.650Z,0.70
2023-01-08T02:43:56.608Z,0.90
2023-01-08T02:44:56.607Z,0.80
2023-01-08T02:45:56.611Z,1.30
2023-01-08T02:46:56.575Z,0.70
2023-01-08T02:47:56.573Z,0.80
2023-01-08T02:48:56.574Z,1.00
2023-01-08T02:49:56.539Z,1.00
2023-01-08T02:50:56.540Z,1.00
2023-01-08T02:51:56.519Z,0.80
2023-01-08T02:52:56.505Z,0.80
2023-01-08T02:53:56.516Z,0.80
2023-01-08T02:54:56.497Z,0.90
2023-01-08T02:55:56.467Z,0.70
2023-01-08T02:56:56.465Z,0.80
2023-01-08T02:57:56.458Z,0.70
2023-01-08T02:58:56.468Z,0.80
2023-01-08T02:59:56.434Z,0.80
2023-01-08T03:00:56.464Z,0.70
2023-01-08T03:01:56.608Z,0.80
2023-01-08T03:02:56.399Z,0.70
2023-01-08T03:03:56.419Z,0.80
2023-01-08T03:04:56.392Z,0.70
2023-01-08T03:05:56.367Z,1.00
2023-01-08T03:06:56.359Z,0.60
2023-01-08T03:07:56.343Z,0.50
2023-01-08T03:08:56.354Z,0.80
2023-01-08T03:09:56.329Z,0.80
2023-01-08T03:10:56.308Z,0.60
2023-01-08T03:11:56.304Z,0.70
2023-01-08T03:12:56.289Z,0.50
2023-01-08T03:13:56.303Z,0.60
2023-01-08T03:14:56.269Z,0.60
2023-01-08T03:15:56.266Z,0.70
2023-01-08T03:16:56.283Z,0.60
2023-01-08T03:17:56.269Z,0.70
2023-01-08T03:19:03.293Z,0.60
2023-01-08T03:19:56.252Z,0.70
2023-01-08T03:20:56.199Z,0.70
2023-01-08T03:21:56.207Z,0.60
2023-01-08T03:22:56.182Z,0.60
2023-01-08T03:23:56.223Z,0.80
2023-01-08T03:24:56.167Z,1.00
2023-01-08T03:25:56.165Z,0.60
2023-01-08T03:26:56.153Z,0.90
2023-01-08T03:27:56.146Z,0.80
2023-01-08T03:28:56.145Z,0.70
2023-01-08T03:29:56.102Z,0.60
2023-01-08T03:30:56.136Z,0.80
2023-01-08T03:31:56.086Z,0.80
2023-01-08T03:32:56.083Z,0.90
2023-01-08T03:33:56.062Z,0.80
2023-01-08T03:34:56.082Z,0.60
2023-01-08T03:35:56.041Z,0.80
2023-01-08T03:36:56.032Z,0.90
2023-01-08T03:37:56.026Z,0.90
2023-01-08T03:38:56.014Z,0.80
2023-01-08T03:39:56.006Z,0.80
2023-01-08T03:40:56.005Z,0.70
2023-01-08T03:41:55.973Z,1.10
2023-01-08T03:42:55.963Z,1.00
2023-01-08T03:43:55.953Z,0.70
2023-01-08T03:44:56.000Z,1.00
2023-01-08T03:45:55.978Z,0.90
2023-01-08T03:46:55.934Z,0.90
2023-01-08T03:47:55.904Z,0.90
2023-01-08T03:48:55.902Z,0.80
2023-01-08T03:49:55.913Z,0.70
2023-01-08T03:50:55.876Z,0.80
2023-01-08T03:51:55.864Z,0.80
2023-01-08T03:52:55.857Z,0.60
2023-01-08T03:53:55.847Z,0.60
2023-01-08T03:54:55.858Z,0.80
2023-01-08T03:55:55.847Z,0.90
2023-01-08T03:56:55.825Z,0.70
2023-01-08T03:57:55.824Z,0.50
2023-01-08T03:58:55.793Z,0.70
2023-01-08T03:59:55.779Z,0.80
2023-01-08T04:00:55.791Z,0.70
2023-01-08T04:01:55.893Z,0.90
2023-01-08T04:02:55.743Z,0.80
2023-01-08T04:03:55.762Z,0.80
2023-01-08T04:04:55.722Z,0.60
2023-01-08T04:05:55.709Z,0.70
2023-01-08T04:06:55.730Z,0.70
2023-01-08T04:07:55.691Z,0.60
2023-01-08T04:08:55.677Z,0.90
2023-01-08T04:09:55.679Z,0.70
2023-01-08T04:10:55.659Z,0.70
2023-01-08T04:11:55.669Z,1.00
2023-01-08T04:12:55.662Z,0.70
2023-01-08T04:13:55.631Z,0.70
2023-01-08T04:14:55.609Z,0.90
2023-01-08T04:15:55.688Z,0.70
2023-01-08T04:16:55.596Z,0.90
2023-01-08T04:17:55.600Z,0.80
2023-01-08T04:18:55.570Z,0.80
2023-01-08T04:19:55.636Z,0.60
2023-01-08T04:20:55.554Z,0.60
2023-01-08T04:21:55.526Z,0.80
2023-01-08T04:22:55.555Z,0.70
2023-01-08T04:23:55.513Z,0.90
2023-01-08T04:24:55.498Z,0.80
2023-01-08T04:25:55.492Z,0.90
2023-01-08T04:26:56.167Z,0.90
2023-01-08T04:27:55.469Z,0.80
2023-01-08T04:28:55.487Z,1.00
2023-01-08T04:29:55.442Z,0.90
2023-01-08T04:30:55.490Z,0.80
2023-01-08T04:31:55.420Z,1.00
2023-01-08T04:32:55.409Z,0.80
2023-01-08T04:33:55.428Z,0.60
2023-01-08T04:34:55.398Z,0.80
2023-01-08T04:35:55.420Z,1.20
2023-01-08T04:36:55.397Z,0.70
2023-01-08T04:37:55.359Z,0.70
2023-01-08T04:38:55.354Z,0.70
2023-01-08T04:39:55.332Z,0.80
2023-01-08T04:40:55.333Z,0.50
2023-01-08T04:41:55.337Z,0.80
2023-01-08T04:42:55.309Z,0.80
2023-01-08T04:43:55.289Z,0.90
2023-01-08T04:44:55.291Z,0.60
2023-01-08T04:45:55.323Z,0.90
2023-01-08T04:46:55.279Z,0.70
2023-01-08T04:47:55.241Z,0.80
2023-01-08T04:48:55.240Z,0.70
2023-01-08T04:49:55.218Z,0.80
2023-01-08T04:50:55.221Z,0.60
2023-01-08T04:51:55.228Z,1.00
2023-01-08T04:52:55.181Z,1.00
2023-01-08T04:53:55.179Z,1.10
2023-01-08T04:54:55.169Z,0.70
2023-01-08T04:55:55.159Z,0.80
2023-01-08T04:56:55.161Z,0.70
2023-01-08T04:57:55.134Z,0.60
2023-01-08T04:58:55.121Z,1.00
2023-01-08T04:59:55.115Z,0.90
2023-01-08T05:00:55.102Z,1.00
2023-01-08T05:01:55.170Z,0.70
2023-01-08T05:02:55.269Z,0.70
2023-01-08T05:03:55.066Z,0.80
2023-01-08T05:04:55.082Z,0.60
2023-01-08T05:05:55.047Z,0.80
2023-01-08T05:06:55.036Z,0.80
2023-01-08T05:07:55.056Z,0.90
2023-01-08T05:08:55.026Z,0.80
2023-01-08T05:09:55.014Z,0.70
2023-01-08T05:10:54.994Z,0.70
2023-01-08T05:11:55.007Z,0.60
2023-01-08T05:12:54.964Z,0.50
2023-01-08T05:13:54.969Z,0.80
2023-01-08T05:14:54.979Z,0.80
2023-01-08T05:15:55.033Z,1.10
2023-01-08T05:16:54.924Z,0.70
2023-01-08T05:17:54.921Z,0.90
2023-01-08T05:18:54.903Z,0.70
2023-01-08T05:19:54.922Z,0.90
2023-01-08T05:20:54.888Z,0.70
2023-01-08T05:21:54.872Z,0.70
2023-01-08T05:22:54.854Z,0.80
2023-01-08T05:23:54.861Z,0.90
2023-01-08T05:24:54.875Z,0.80
2023-01-08T05:25:54.828Z,0.70
2023-01-08T05:26:54.815Z,0.70
2023-01-08T05:27:54.805Z,0.60
2023-01-08T05:28:54.793Z,0.60
2023-01-08T05:29:54.812Z,0.90
2023-01-08T05:30:54.855Z,0.70
2023-01-08T05:31:54.763Z,0.70
2023-01-08T05:32:54.748Z,1.00
2023-01-08T05:33:54.754Z,0.70
2023-01-08T05:34:54.749Z,0.70
2023-01-08T05:35:54.715Z,0.70
2023-01-08T05:36:54.706Z,0.80
2023-01-08T05:37:54.695Z,0.70
2023-01-08T05:38:54.687Z,0.70
2023-01-08T05:39:54.700Z,0.70
2023-01-08T05:40:54.676Z,0.80
2023-01-08T05:41:54.665Z,0.70
2023-01-08T05:42:54.656Z,0.70
2023-01-08T05:43:54.626Z,0.90
2023-01-08T05:44:54.625Z,0.60
2023-01-08T05:45:54.703Z,0.80
2023-01-08T05:46:54.823Z,0.70
2023-01-08T05:47:54.584Z,0.70
2023-01-08T05:48:54.572Z,0.70
2023-01-08T05:49:54.557Z,0.50
2023-01-08T05:50:54.548Z,0.80
2023-01-08T05:51:54.566Z,0.70
2023-01-08T05:52:54.526Z,0.70
2023-01-08T05:53:54.528Z,0.70
2023-01-08T05:54:54.497Z,0.60
2023-01-08T05:55:54.497Z,0.50
2023-01-08T05:56:54.486Z,0.50
2023-01-08T05:57:54.502Z,0.70
2023-01-08T05:58:54.459Z,0.80
2023-01-08T05:59:54.454Z,0.50
2023-01-08T06:00:54.440Z,0.70
2023-01-08T06:01:54.421Z,0.60
2023-01-08T06:02:54.455Z,0.80
2023-01-08T06:03:54.433Z,0.50
2023-01-08T06:04:54.433Z,0.70
2023-01-08T06:05:54.388Z,0.70
2023-01-08T06:06:54.381Z,0.70
2023-01-08T06:07:54.373Z,0.80
2023-01-08T06:08:54.367Z,0.70
2023-01-08T06:09:54.359Z,0.60
2023-01-08T06:10:54.335Z,0.60
2023-01-08T06:11:54.329Z,0.60
2023-01-08T06:12:54.300Z,0.50
2023-01-08T06:13:54.298Z,0.70
2023-01-08T06:14:54.305Z,0.60
2023-01-08T06:15:54.334Z,0.60
2023-01-08T06:16:54.251Z,0.50
2023-01-08T06:17:54.249Z,0.60
2023-01-08T06:18:54.321Z,0.50
2023-01-08T06:19:54.239Z,0.60
2023-01-08T06:20:54.209Z,0.50
2023-01-08T06:21:54.204Z,0.60
2023-01-08T06:22:54.188Z,0.70
2023-01-08T06:23:54.182Z,0.60
2023-01-08T06:24:54.190Z,0.80
2023-01-08T06:25:54.180Z,0.70
2023-01-08T06:26:54.143Z,0.60
2023-01-08T06:27:54.133Z,0.60
2023-01-08T06:28:54.122Z,0.60
2023-01-08T06:29:54.117Z,0.50
2023-01-08T06:30:54.250Z,0.60
2023-01-08T06:31:54.090Z,0.50
2023-01-08T06:32:54.078Z,0.50
2023-01-08T06:33:54.073Z,0.50
2023-01-08T06:34:54.053Z,0.50
2023-01-08T06:35:54.074Z,0.60
2023-01-08T06:36:54.041Z,0.50
2023-01-08T06:37:54.035Z,0.50
2023-01-08T06:38:54.011Z,0.50
2023-01-08T06:39:54.050Z,0.40
2023-01-08T06:40:53.994Z,0.50
2023-01-08T06:41:54.005Z,0.50
2023-01-08T06:42:53.964Z,0.50
2023-01-08T06:43:53.967Z,0.60
2023-01-08T06:44:53.947Z,0.50
2023-01-08T06:45:53.941Z,0.50
2023-01-08T06:46:54.081Z,0.50
2023-01-08T06:47:53.918Z,0.30
2023-01-08T06:48:53.892Z,0.50
2023-01-08T06:49:53.891Z,0.30
2023-01-08T06:50:53.877Z,0.50
2023-01-08T06:51:53.882Z,0.60
2023-01-08T06:52:53.865Z,0.60
2023-01-08T06:53:53.847Z,0.50
2023-01-08T06:54:53.852Z,0.40
2023-01-08T06:55:53.825Z,0.40
2023-01-08T06:56:54.561Z,0.50
2023-01-08T06:57:53.801Z,0.50
2023-01-08T06:58:53.812Z,0.50
2023-01-08T06:59:53.776Z,0.40
2023-01-08T07:00:53.767Z,0.50
2023-01-08T07:01:53.857Z,0.40
2023-01-08T07:02:53.915Z,0.60
2023-01-08T07:03:53.736Z,0.60
2023-01-08T07:04:53.743Z,0.50
2023-01-08T07:05:53.707Z,0.40
2023-01-08T07:06:53.697Z,0.50
2023-01-08T07:07:53.702Z,0.50
2023-01-08T07:08:53.702Z,0.50
2023-01-08T07:09:53.687Z,0.50
2023-01-08T07:10:53.645Z,0.50
2023-01-08T07:11:53.649Z,0.30
2023-01-08T07:12:53.628Z,0.30
2023-01-08T07:13:53.622Z,0.60
2023-01-08T07:14:53.627Z,0.60
2023-01-08T07:15:53.692Z,0.60
2023-01-08T07:16:53.595Z,0.40
2023-01-08T07:17:53.575Z,0.50
2023-01-08T07:18:53.565Z,0.70
2023-01-08T07:19:53.564Z,0.40
2023-01-08T07:20:53.546Z,0.50
2023-01-08T07:21:53.562Z,0.30
2023-01-08T07:22:53.517Z,0.50
2023-01-08T07:23:53.514Z,0.50
2023-01-08T07:24:53.503Z,0.40
2023-01-08T07:25:53.486Z,0.50
2023-01-08T07:26:53.499Z,0.50
2023-01-08T07:27:53.473Z,0.50
2023-01-08T07:28:53.449Z,0.30
2023-01-08T07:29:53.436Z,0.40
2023-01-08T07:30:53.470Z,0.40
2023-01-08T07:31:53.456Z,0.50
2023-01-08T07:32:53.407Z,0.40
2023-01-08T07:33:53.400Z,0.70
2023-01-08T07:34:53.397Z,0.50
2023-01-08T07:35:53.376Z,0.40
2023-01-08T07:36:53.369Z,0.50
2023-01-08T07:37:53.377Z,0.40
2023-01-08T07:38:53.355Z,0.50
2023-01-08T07:39:53.329Z,0.40
2023-01-08T07:40:53.320Z,0.30
2023-01-08T07:41:53.315Z,0.40
2023-01-08T07:42:53.317Z,0.70
2023-01-08T07:43:53.302Z,0.20
2023-01-08T07:44:53.277Z,0.40
2023-01-08T07:45:53.283Z,0.20
2023-01-08T07:46:53.316Z,0.40
2023-01-08T07:47:53.275Z,0.30
2023-01-08T07:48:53.232Z,0.30
2023-01-08T07:49:53.219Z,0.60
2023-01-08T07:50:53.209Z,0.20
2023-01-08T07:51:53.198Z,0.40
2023-01-08T07:52:53.212Z,0.20
2023-01-08T07:53:53.177Z,0.20
2023-01-08T07:54:53.161Z,0.30
2023-01-08T07:55:53.182Z,0.20
2023-01-08T07:56:53.140Z,0.40
2023-01-08T07:57:53.138Z,0.10
2023-01-08T07:58:53.141Z,0.20
2023-01-08T07:59:53.112Z,0.40
2023-01-08T08:00:53.098Z,0.60
2023-01-08T08:01:53.228Z,0.20
2023-01-08T08:02:53.149Z,0.30
2023-01-08T08:03:53.089Z,0.60
2023-01-08T08:04:53.058Z,0.50
2023-01-08T08:05:53.048Z,0.40
2023-01-08T08:06:53.028Z,0.30
2023-01-08T08:07:53.023Z,0.30
2023-01-08T08:08:53.038Z,0.30
2023-01-08T08:09:53.009Z,0.60
2023-01-08T08:10:52.984Z,0.30
2023-01-08T08:11:52.976Z,0.30
2023-01-08T08:12:52.965Z,0.30
2023-01-08T08:13:54.695Z,0.50
2023-01-08T08:14:52.963Z,0.30
2023-01-08T08:15:52.976Z,0.30
2023-01-08T08:16:52.946Z,0.50
2023-01-08T08:17:52.909Z,0.20
2023-01-08T08:18:52.921Z,0.30
2023-01-08T08:19:52.880Z,0.30
2023-01-08T08:20:52.876Z,0.40
2023-01-08T08:21:52.865Z,0.50
2023-01-08T08:22:52.852Z,0.50
2023-01-08T08:23:52.872Z,0.50
2023-01-08T08:24:52.832Z,0.40
2023-01-08T08:25:52.835Z,0.50
2023-01-08T08:26:52.812Z,0.50
2023-01-08T08:27:52.798Z,0.50
2023-01-08T08:28:52.790Z,0.40
2023-01-08T08:29:52.786Z,0.50
2023-01-08T08:30:52.828Z,0.40
2023-01-08T08:31:52.780Z,0.50
2023-01-08T08:32:52.743Z,0.40
2023-01-08T08:33:52.725Z,0.40
2023-01-08T08:34:52.719Z,0.40
2023-01-08T08:35:52.703Z,0.50
2023-01-08T08:36:52.723Z,0.70
2023-01-08T08:37:52.693Z,0.50
2023-01-08T08:38:52.674Z,0.20
2023-01-08T08:39:52.668Z,0.50
2023-01-08T08:40:52.676Z,0.60
2023-01-08T08:41:52.677Z,0.80
2023-01-08T08:42:52.633Z,0.50
2023-01-08T08:43:52.616Z,0.60
2023-01-08T08:44:52.616Z,0.70
2023-01-08T08:45:52.776Z,0.30
2023-01-08T08:46:52.647Z,0.40
2023-01-08T08:47:52.583Z,0.30
2023-01-08T08:48:52.571Z,0.60
2023-01-08T08:49:52.544Z,0.50
2023-01-08T08:50:52.554Z,0.40
2023-01-08T08:51:52.534Z,0.60
2023-01-08T08:52:52.550Z,0.50
2023-01-08T08:53:52.513Z,0.70
2023-01-08T08:54:52.503Z,0.50
2023-01-08T08:55:52.489Z,0.30
2023-01-08T08:56:52.482Z,0.60
2023-01-08T08:57:52.483Z,0.50
2023-01-08T08:58:52.474Z,0.60
2023-01-08T08:59:52.451Z,0.60
2023-01-08T09:00:52.437Z,0.50
2023-01-08T09:01:52.560Z,0.60
2023-01-08T09:02:52.491Z,0.50
2023-01-08T09:03:52.454Z,0.60
2023-01-08T09:04:52.386Z,0.60
2023-01-08T09:05:52.368Z,0.40
2023-01-08T09:06:52.363Z,0.50
2023-01-08T09:07:52.355Z,0.40
2023-01-08T09:08:52.348Z,0.50
2023-01-08T09:09:52.357Z,0.60
2023-01-08T09:10:52.330Z,0.70
2023-01-08T09:11:52.305Z,0.60
2023-01-08T09:12:52.300Z,0.90
2023-01-08T09:13:52.315Z,0.50
2023-01-08T09:14:52.275Z,0.60
2023-01-08T09:15:52.328Z,0.50
2023-01-08T09:16:52.265Z,0.40
2023-01-08T09:17:52.232Z,0.50
2023-01-08T09:18:52.229Z,0.60
2023-01-08T09:19:52.235Z,0.40
2023-01-08T09:20:52.206Z,0.40
2023-01-08T09:21:52.188Z,0.50
2023-01-08T09:22:52.206Z,0.60
2023-01-08T09:23:52.169Z,0.40
2023-01-08T09:24:52.159Z,0.50
2023-01-08T09:25:52.163Z,0.40
2023-01-08T09:26:52.157Z,0.50
2023-01-08T09:27:52.165Z,0.40
2023-01-08T09:28:52.117Z,0.40
2023-01-08T09:29:52.102Z,0.70
2023-01-08T09:30:52.097Z,0.60
2023-01-08T09:31:52.138Z,0.50
2023-01-08T09:32:52.105Z,0.60
2023-01-08T09:33:52.071Z,0.50
2023-01-08T09:34:52.048Z,0.40
2023-01-08T09:35:52.036Z,0.70
2023-01-08T09:36:52.025Z,0.40
2023-01-08T09:37:52.012Z,0.50
2023-01-08T09:38:52.028Z,0.60
2023-01-08T09:40:01.666Z,0.40
2023-01-08T09:40:52.977Z,0.40
2023-01-08T09:41:51.976Z,0.50
2023-01-08T09:42:51.961Z,0.50
2023-01-08T09:43:51.948Z,0.50
2023-01-08T09:44:51.956Z,0.30
2023-01-08T09:45:51.921Z,0.50
2023-01-08T09:46:52.079Z,0.50
2023-01-08T09:47:51.897Z,0.30
2023-01-08T09:48:51.917Z,0.20
2023-01-08T09:49:51.904Z,0.40
2023-01-08T09:50:51.867Z,0.30
2023-01-08T09:51:51.864Z,0.40
2023-01-08T09:52:51.850Z,0.30
2023-01-08T09:53:51.838Z,0.70
2023-01-08T09:54:51.831Z,0.30
2023-01-08T09:56:04.624Z,0.20
2023-01-08T09:56:52.812Z,0.30
2023-01-08T09:57:51.797Z,0.40
2023-01-08T09:58:51.786Z,0.50
2023-01-08T09:59:51.780Z,0.40
2023-01-08T10:00:51.830Z,0.40
2023-01-08T10:01:51.848Z,0.40
2023-01-08T10:02:51.826Z,0.40
2023-01-08T10:03:51.722Z,0.40
2023-01-08T10:04:54.316Z,0.50
2023-01-08T10:05:51.739Z,0.60
2023-01-08T10:06:51.700Z,0.20
2023-01-08T10:07:51.682Z,0.40
2023-01-08T10:08:51.694Z,0.50
2023-01-08T10:09:51.661Z,0.60
2023-01-08T10:10:51.691Z,0.60
2023-01-08T10:11:51.650Z,0.50
2023-01-08T10:12:51.638Z,0.60
2023-01-08T10:13:51.619Z,0.40
2023-01-08T10:14:53.089Z,0.40
2023-01-08T10:15:51.638Z,0.30
2023-01-08T10:16:51.632Z,0.60
2023-01-08T10:17:51.573Z,0.50
2023-01-08T10:18:51.562Z,0.50
2023-01-08T10:19:51.569Z,0.40
2023-01-08T10:20:53.929Z,0.50
2023-01-08T10:21:51.532Z,0.40
2023-01-08T10:22:51.540Z,0.40
2023-01-08T10:23:51.503Z,0.30
2023-01-08T10:24:51.526Z,0.60
2023-01-08T10:25:51.490Z,0.40
2023-01-08T10:26:52.642Z,0.40
2023-01-08T10:27:51.488Z,0.70
2023-01-08T10:28:51.461Z,0.50
2023-01-08T10:29:51.444Z,0.70
2023-01-08T10:30:51.446Z,0.70
2023-01-08T10:31:51.423Z,0.40
2023-01-08T10:32:53.513Z,0.50
2023-01-08T10:33:51.437Z,0.40
2023-01-08T10:34:51.409Z,0.80
2023-01-08T10:35:51.374Z,0.60
2023-01-08T10:36:51.364Z,0.50
2023-01-08T10:37:51.356Z,0.40
2023-01-08T10:38:51.373Z,0.50
2023-01-08T10:39:51.334Z,1.00
2023-01-08T10:40:51.325Z,0.50
2023-01-08T10:41:51.307Z,0.30
2023-01-08T10:42:51.302Z,0.50
2023-01-08T10:43:51.313Z,0.40
2023-01-08T10:44:51.275Z,0.50
2023-01-08T10:45:51.296Z,0.90
2023-01-08T10:46:51.253Z,0.60
2023-01-08T10:47:51.245Z,0.60
2023-01-08T10:48:51.255Z,0.50
2023-01-08T10:49:51.224Z,0.80
2023-01-08T10:50:58.263Z,0.40
2023-01-08T10:51:51.207Z,0.30
2023-01-08T10:52:51.193Z,0.40
2023-01-08T10:53:51.208Z,0.70
2023-01-08T10:54:51.166Z,0.90
2023-01-08T10:55:51.161Z,0.50
2023-01-08T10:56:51.159Z,0.70
2023-01-08T10:57:51.138Z,0.60
2023-01-08T10:58:51.128Z,0.50
2023-01-08T10:59:51.134Z,0.70
2023-01-08T11:00:51.140Z,0.40
2023-01-08T11:01:51.173Z,0.80
2023-01-08T11:02:51.085Z,0.40
2023-01-08T11:03:51.067Z,0.50
2023-01-08T11:04:51.081Z,0.60
2023-01-08T11:05:51.054Z,0.40
2023-01-08T11:06:51.046Z,0.50
2023-01-08T11:07:51.025Z,0.30
2023-01-08T11:08:51.730Z,0.60
2023-01-08T11:09:51.029Z,0.60
2023-01-08T11:10:51.001Z,0.70
2023-01-08T11:11:50.988Z,0.60
2023-01-08T11:12:50.977Z,0.50
2023-01-08T11:13:50.959Z,0.70
2023-01-08T11:14:51.786Z,1.10
2023-01-08T11:15:50.939Z,0.80
2023-01-08T11:16:50.936Z,0.80
2023-01-08T11:17:50.912Z,0.60
2023-01-08T11:18:50.920Z,0.80
2023-01-08T11:19:50.890Z,0.90
2023-01-08T11:20:50.909Z,0.50
2023-01-08T11:21:50.892Z,0.60
2023-01-08T11:22:50.862Z,0.40
2023-01-08T11:23:50.850Z,0.50
2023-01-08T11:24:50.840Z,0.60
2023-01-08T11:25:50.824Z,0.80
2023-01-08T11:26:50.848Z,0.90
2023-01-08T11:27:50.803Z,0.50
2023-01-08T11:28:50.817Z,0.60
2023-01-08T11:29:50.796Z,0.60
2023-01-08T11:30:50.784Z,0.50
2023-01-08T11:31:50.797Z,0.50
2023-01-08T11:32:50.783Z,0.50
2023-01-08T11:33:50.742Z,0.50
2023-01-08T11:34:50.733Z,0.80
2023-01-08T11:35:50.721Z,0.80
2023-01-08T11:36:50.713Z,0.30
2023-01-08T11:37:50.724Z,0.60
2023-01-08T11:38:50.691Z,0.60
2023-01-08T11:39:50.673Z,0.60
2023-01-08T11:40:50.670Z,0.70
2023-01-08T11:41:50.651Z,0.50
2023-01-08T11:42:50.665Z,0.60
2023-01-08T11:43:50.655Z,0.80
2023-01-08T11:44:50.720Z,0.60
2023-01-08T11:45:50.684Z,0.50
2023-01-08T11:46:50.596Z,0.80
2023-01-08T11:47:50.606Z,0.70
2023-01-08T11:48:50.578Z,0.70
2023-01-08T11:49:50.592Z,0.50
2023-01-08T11:50:50.578Z,0.50
2023-01-08T11:51:50.547Z,0.60
2023-01-08T11:52:50.535Z,0.50
2023-01-08T11:53:50.557Z,0.30
2023-01-08T11:54:50.515Z,0.40
2023-01-08T11:55:50.517Z,0.40
2023-01-08T11:56:50.529Z,0.40
2023-01-08T11:57:50.481Z,0.50
2023-01-08T11:58:50.475Z,0.50
2023-01-08T11:59:50.458Z,0.70
2023-01-08T12:00:50.450Z,0.50
2023-01-08T12:01:50.535Z,0.30
2023-01-08T12:02:50.473Z,0.50
2023-01-08T12:03:50.422Z,0.40
2023-01-08T12:04:50.399Z,0.60
2023-01-08T12:05:50.391Z,0.40
2023-01-08T12:06:50.400Z,0.40
2023-01-08T12:07:50.368Z,0.80
2023-01-08T12:08:50.380Z,0.70
2023-01-08T12:09:50.353Z,0.60
2023-01-08T12:10:50.339Z,0.60
2023-01-08T12:11:50.336Z,0.40
2023-01-08T12:12:50.324Z,0.50
2023-01-08T12:13:50.332Z,0.60
2023-01-08T12:14:50.290Z,0.50
2023-01-08T12:15:50.290Z,0.70
2023-01-08T12:16:50.273Z,0.70
2023-01-08T12:17:50.266Z,0.70
2023-01-08T12:18:50.244Z,0.70
2023-01-08T12:19:50.261Z,0.40
2023-01-08T12:20:50.234Z,0.60
2023-01-08T12:21:50.213Z,0.40
2023-01-08T12:22:50.222Z,0.60
2023-01-08T12:23:50.195Z,0.50
2023-01-08T12:24:50.192Z,0.50
2023-01-08T12:25:50.203Z,0.40
2023-01-08T12:26:50.162Z,0.40
2023-01-08T12:27:56.915Z,0.50
2023-01-08T12:28:51.162Z,0.30
2023-01-08T12:29:50.135Z,0.80
2023-01-08T12:30:50.131Z,0.30
2023-01-08T12:32:01.970Z,0.40
2023-01-08T12:32:51.096Z,0.80
2023-01-08T12:33:50.106Z,0.50
2023-01-08T12:34:50.079Z,0.50
2023-01-08T12:35:50.083Z,0.50
2023-01-08T12:36:50.052Z,0.60
2023-01-08T12:37:51.860Z,0.50
2023-01-08T12:38:50.067Z,0.60
2023-01-08T12:39:50.018Z,0.70
2023-01-08T12:40:50.006Z,0.50
2023-01-08T12:41:49.995Z,0.50
2023-01-08T12:42:59.909Z,0.50
2023-01-08T12:43:51.013Z,0.40
2023-01-08T12:44:49.985Z,0.40
2023-01-08T12:45:49.979Z,0.40
2023-01-08T12:46:49.949Z,0.50
2023-01-08T12:47:49.936Z,0.50
2023-01-08T12:48:51.757Z,0.30
2023-01-08T12:49:49.929Z,0.70
2023-01-08T12:50:49.898Z,0.70
2023-01-08T12:51:49.901Z,0.60
2023-01-08T12:52:49.880Z,0.30
2023-01-08T12:53:49.861Z,0.60
2023-01-08T12:54:49.869Z,0.70
2023-01-08T12:55:49.847Z,0.60
2023-01-08T12:56:49.832Z,0.30
2023-01-08T12:57:49.824Z,0.50
2023-01-08T12:58:49.811Z,0.50
2023-01-08T12:59:49.822Z,0.50
2023-01-08T13:00:49.795Z,0.50
2023-01-08T13:01:49.950Z,0.30
2023-01-08T13:02:49.824Z,0.40
2023-01-08T13:03:49.785Z,0.30
2023-01-08T13:04:49.776Z,0.30
2023-01-08T13:05:49.732Z,0.60
2023-01-08T13:06:49.722Z,0.70
2023-01-08T13:07:49.721Z,0.40
2023-01-08T13:08:49.700Z,0.50
2023-01-08T13:09:49.710Z,0.60
2023-01-08T13:10:49.677Z,0.70
2023-01-08T13:11:49.671Z,0.40
2023-01-08T13:12:49.654Z,0.50
2023-01-08T13:13:49.642Z,0.60
2023-01-08T13:14:49.654Z,0.40
2023-01-08T13:15:49.633Z,0.60
2023-01-08T13:16:49.627Z,0.40
2023-01-08T13:17:49.626Z,0.40
2023-01-08T13:18:49.588Z,0.40